createdAt,value
2018-08-30T00:01:11.715Z,3.60
2018-08-30T00:03:40.532Z,3.20
2018-08-30T00:06:09.103Z,3.73
2018-08-30T00:08:37.656Z,3.93
2018-08-30T00:11:06.271Z,4.30
2018-08-30T00:13:34.963Z,3.70
2018-08-30T00:16:03.511Z,3.40
2018-08-30T00:18:32.797Z,3.63
2018-08-30T00:21:01.944Z,3.90
2018-08-30T00:23:31.001Z,3.10
2018-08-30T00:26:00.279Z,4.10
2018-08-30T00:28:29.482Z,3.37
2018-08-30T00:30:58.413Z,3.20
2018-08-30T00:33:27.185Z,3.53
2018-08-30T00:35:55.885Z,3.63
2018-08-30T00:38:24.476Z,3.13
2018-08-30T00:40:53.367Z,3.30
2018-08-30T00:43:21.928Z,3.33
2018-08-30T00:45:50.628Z,3.13
2018-08-30T00:48:19.291Z,3.20
2018-08-30T00:50:47.859Z,2.90
2018-08-30T00:53:16.405Z,3.10
2018-08-30T00:55:45.223Z,3.20
2018-08-30T00:58:13.781Z,3.40
2018-08-30T01:00:42.371Z,3.70
2018-08-30T01:03:10.965Z,2.90
2018-08-30T01:05:39.707Z,2.30
2018-08-30T01:08:08.248Z,2.80
2018-08-30T01:10:36.858Z,3.13
2018-08-30T01:13:05.454Z,2.53
2018-08-30T01:15:34.040Z,2.80
2018-08-30T01:18:02.861Z,2.60
2018-08-30T01:20:31.419Z,2.33
2018-08-30T01:23:00.012Z,2.33
2018-08-30T01:25:28.903Z,2.57
2018-08-30T01:27:57.436Z,2.57
2018-08-30T01:30:26.037Z,2.80
2018-08-30T01:32:54.627Z,2.33
2018-08-30T01:35:23.192Z,1.90
2018-08-30T01:37:51.775Z,2.27
2018-08-30T01:40:20.521Z,2.00
2018-08-30T01:42:49.070Z,2.20
2018-08-30T01:45:17.627Z,1.80
2018-08-30T01:47:46.435Z,2.10
2018-08-30T01:50:15.107Z,1.90
2018-08-30T01:52:43.668Z,2.10
2018-08-30T01:55:12.618Z,2.00
2018-08-30T01:57:41.160Z,2.60
2018-08-30T02:00:09.759Z,2.17
2018-08-30T02:02:38.343Z,2.77
2018-08-30T02:05:07.009Z,2.97
2018-08-30T02:07:35.578Z,2.87
2018-08-30T02:10:04.676Z,2.07
2018-08-30T02:12:33.233Z,2.97
2018-08-30T02:15:01.812Z,2.67
2018-08-30T02:17:30.523Z,3.50
2018-08-30T02:19:59.063Z,2.60
2018-08-30T02:22:27.632Z,2.90
2018-08-30T02:24:56.275Z,2.63
2018-08-30T02:27:24.824Z,2.73
2018-08-30T02:29:53.423Z,2.23
2018-08-30T02:32:22.076Z,2.47
2018-08-30T02:34:50.632Z,2.50
2018-08-30T02:37:19.194Z,2.00
2018-08-30T02:39:47.899Z,2.23
2018-08-30T02:42:16.474Z,2.23
2018-08-30T02:44:45.019Z,2.77
2018-08-30T02:47:13.929Z,3.30
2018-08-30T02:49:42.504Z,2.60
2018-08-30T02:52:11.068Z,3.10
2018-08-30T02:54:39.996Z,3.83
2018-08-30T02:57:08.676Z,3.33
2018-08-30T02:59:37.250Z,4.23
2018-08-30T03:02:06.091Z,4.50
2018-08-30T03:04:34.668Z,4.43
2018-08-30T03:07:03.230Z,5.07
2018-08-30T03:09:32.063Z,5.10
2018-08-30T03:12:00.639Z,4.43
2018-08-30T03:14:29.222Z,3.93
2018-08-30T03:16:58.132Z,5.50
2018-08-30T03:19:26.699Z,5.60
2018-08-30T03:21:55.255Z,5.20
2018-08-30T03:24:23.827Z,5.00
2018-08-30T03:26:52.383Z,5.57
2018-08-30T03:29:20.928Z,4.20
2018-08-30T03:31:49.503Z,6.13
2018-08-30T03:34:18.048Z,5.43
2018-08-30T03:36:46.605Z,7.40
2018-08-30T03:39:15.259Z,7.40
2018-08-30T03:41:43.828Z,7.43
2018-08-30T03:44:12.443Z,7.90
2018-08-30T03:46:41.100Z,7.63
2018-08-30T03:49:09.648Z,8.40
2018-08-30T03:51:38.196Z,7.20
2018-08-30T03:54:06.912Z,6.90
2018-08-30T03:56:35.471Z,6.17
2018-08-30T03:59:04.024Z,6.80
2018-08-30T04:01:32.697Z,5.97
2018-08-30T04:04:01.239Z,6.20
2018-08-30T04:06:29.787Z,5.30
2018-08-30T04:08:58.367Z,6.17
2018-08-30T04:11:27.115Z,5.07
2018-08-30T04:13:55.667Z,4.57
2018-08-30T04:16:24.623Z,5.67
2018-08-30T04:18:59.155Z,5.10
2018-08-30T04:21:27.771Z,5.17
2018-08-30T04:23:56.567Z,4.93
2018-08-30T04:26:25.202Z,4.50
2018-08-30T04:28:53.767Z,5.83
2018-08-30T04:31:22.303Z,4.80
2018-08-30T04:33:50.948Z,5.57
2018-08-30T04:36:19.587Z,4.90
2018-08-30T04:38:48.167Z,5.43
2018-08-30T04:41:16.707Z,5.60
2018-08-30T04:43:45.275Z,4.53
2018-08-30T04:46:13.820Z,5.33
2018-08-30T04:48:42.563Z,4.53
2018-08-30T04:51:11.163Z,4.20
2018-08-30T04:53:39.739Z,3.90
2018-08-30T04:56:08.293Z,4.40
2018-08-30T04:58:36.883Z,4.70
2018-08-30T05:01:05.561Z,4.17
2018-08-30T05:03:34.118Z,4.27
2018-08-30T05:06:02.867Z,4.17
2018-08-30T05:08:31.423Z,3.63
2018-08-30T05:11:00.036Z,5.13
2018-08-30T05:13:28.991Z,3.87
2018-08-30T05:15:57.551Z,4.57
2018-08-30T05:18:26.115Z,4.60
2018-08-30T05:20:55.051Z,5.57
2018-08-30T05:23:23.589Z,4.80
2018-08-30T05:25:52.132Z,5.40
2018-08-30T05:31:26.355Z,8.37
2018-08-30T05:33:55.047Z,9.30
2018-08-30T05:36:23.599Z,10.00
2018-08-30T05:38:52.214Z,10.00
2018-08-30T05:41:20.935Z,9.77
2018-08-30T05:43:49.494Z,8.40
2018-08-30T05:46:18.051Z,9.27
2018-08-30T05:48:46.970Z,9.97
2018-08-30T05:51:15.516Z,9.87
2018-08-30T05:53:44.064Z,8.90
2018-08-30T05:56:12.804Z,9.10
2018-08-30T05:58:41.371Z,9.60
2018-08-30T06:01:09.992Z,9.60
2018-08-30T06:03:38.572Z,9.87
2018-08-30T06:06:07.196Z,11.27
2018-08-30T06:08:35.743Z,8.90
2018-08-30T06:11:04.737Z,10.40
2018-08-30T06:13:33.287Z,10.27
2018-08-30T06:16:01.863Z,10.97
2018-08-30T06:18:30.535Z,10.10
2018-08-30T06:20:59.091Z,9.33
2018-08-30T06:23:27.664Z,10.43
2018-08-30T06:25:56.455Z,10.17
2018-08-30T06:28:25.024Z,10.70
2018-08-30T06:30:53.588Z,10.37
2018-08-30T06:33:22.183Z,10.60
2018-08-30T06:35:50.747Z,9.57
2018-08-30T06:38:19.347Z,9.80
2018-08-30T06:40:48.247Z,9.20
2018-08-30T06:43:16.807Z,9.47
2018-08-30T06:45:45.355Z,9.10
2018-08-30T06:48:14.200Z,9.23
2018-08-30T06:50:42.752Z,8.63
2018-08-30T06:53:11.327Z,9.30
2018-08-30T06:55:40.035Z,9.03
2018-08-30T06:58:08.588Z,8.60
2018-08-30T07:00:37.172Z,8.80
2018-08-30T07:03:06.375Z,8.53
2018-08-30T07:05:34.955Z,9.10
2018-08-30T07:08:03.545Z,9.50
2018-08-30T07:10:32.149Z,9.10
2018-08-30T07:13:00.715Z,9.07
2018-08-30T07:15:29.365Z,9.13
2018-08-30T07:17:57.988Z,8.60
2018-08-30T07:20:26.548Z,9.57
2018-08-30T07:22:55.110Z,8.73
2018-08-30T07:25:23.779Z,7.23
2018-08-30T07:27:52.360Z,8.50
2018-08-30T07:30:20.915Z,6.77
2018-08-30T07:32:49.579Z,6.87
2018-08-30T07:35:18.128Z,6.80
2018-08-30T07:37:46.675Z,5.27
2018-08-30T07:40:15.395Z,6.80
2018-08-30T07:42:43.948Z,6.27
2018-08-30T07:45:12.482Z,5.17
2018-08-30T07:47:41.062Z,5.00
2018-08-30T07:50:09.631Z,5.60
2018-08-30T07:52:38.168Z,5.20
2018-08-30T07:55:07.027Z,5.33
2018-08-30T07:57:35.686Z,5.70
2018-08-30T08:00:04.514Z,5.53
2018-08-30T08:02:33.131Z,5.97
2018-08-30T08:05:01.676Z,5.73
2018-08-30T08:07:30.288Z,5.83
2018-08-30T08:09:59.654Z,4.80
2018-08-30T08:12:28.213Z,6.30
2018-08-30T08:14:56.759Z,6.33
2018-08-30T08:17:25.360Z,6.00
2018-08-30T08:19:54.011Z,5.10
2018-08-30T08:22:22.623Z,6.53
2018-08-30T08:24:51.351Z,5.50
2018-08-30T08:27:19.873Z,6.23
2018-08-30T08:29:48.419Z,5.80
2018-08-30T08:32:17.124Z,4.97
2018-08-30T08:34:45.663Z,5.47
2018-08-30T08:37:14.323Z,5.67
2018-08-30T08:39:42.992Z,6.00
2018-08-30T08:42:11.551Z,5.90
2018-08-30T08:44:40.111Z,5.67
2018-08-30T08:47:09.039Z,6.07
2018-08-30T08:49:38.320Z,7.97
2018-08-30T08:52:06.919Z,5.90
2018-08-30T08:54:35.623Z,5.67
2018-08-30T08:57:04.197Z,5.90
2018-08-30T08:59:32.739Z,5.60
2018-08-30T09:02:01.339Z,5.40
2018-08-30T09:04:29.891Z,5.90
2018-08-30T09:06:58.481Z,4.93
2018-08-30T09:09:27.071Z,5.50
2018-08-30T09:11:55.616Z,4.80
2018-08-30T09:14:24.182Z,4.30
2018-08-30T09:16:53.035Z,4.60
2018-08-30T09:19:21.591Z,5.07
2018-08-30T09:21:50.152Z,5.17
2018-08-30T09:24:19.379Z,4.87
2018-08-30T09:26:47.997Z,4.50
2018-08-30T09:29:16.516Z,5.00
2018-08-30T09:31:45.112Z,4.00
2018-08-30T09:34:13.693Z,4.53
2018-08-30T09:36:42.312Z,4.73
2018-08-30T09:39:10.996Z,4.30
2018-08-30T09:41:39.579Z,4.43
2018-08-30T09:44:08.173Z,4.97
2018-08-30T09:46:37.184Z,4.60
2018-08-30T09:49:06.223Z,5.87
2018-08-30T09:51:34.827Z,5.07
2018-08-30T09:54:03.500Z,5.67
2018-08-30T09:56:32.060Z,4.90
2018-08-30T09:59:00.608Z,5.07
2018-08-30T10:01:34.607Z,4.90
2018-08-30T10:04:03.176Z,4.93
2018-08-30T10:06:31.761Z,5.23
2018-08-30T10:09:01.107Z,4.63
2018-08-30T10:11:29.674Z,5.43
2018-08-30T10:13:58.232Z,4.53
2018-08-30T10:16:27.163Z,5.40
2018-08-30T10:18:55.761Z,4.80
2018-08-30T10:21:24.361Z,4.67
2018-08-30T10:23:53.075Z,5.03
2018-08-30T10:26:21.660Z,4.50
2018-08-30T10:28:50.220Z,4.80
2018-08-30T10:31:18.951Z,4.93
2018-08-30T10:33:47.479Z,5.87
2018-08-30T10:36:16.032Z,5.80
2018-08-30T10:38:44.716Z,4.90
2018-08-30T10:41:13.275Z,4.70
2018-08-30T10:43:41.827Z,5.60
2018-08-30T10:46:10.491Z,6.23
2018-08-30T10:48:39.078Z,5.80
2018-08-30T10:51:07.675Z,5.97
2018-08-30T10:53:36.622Z,5.30
2018-08-30T10:56:05.242Z,5.97
2018-08-30T10:58:33.876Z,5.10
2018-08-30T11:01:02.555Z,6.10
2018-08-30T11:03:31.231Z,6.13
2018-08-30T11:05:59.804Z,5.40
2018-08-30T11:08:28.760Z,5.57
2018-08-30T11:10:57.296Z,5.50
2018-08-30T11:13:25.924Z,5.93
2018-08-30T11:15:54.531Z,6.37
2018-08-30T11:18:23.114Z,6.27
2018-08-30T11:20:51.683Z,6.90
2018-08-30T11:23:20.685Z,5.20
2018-08-30T11:25:49.235Z,6.13
2018-08-30T11:28:17.780Z,6.00
2018-08-30T11:30:46.451Z,6.53
2018-08-30T11:33:15.017Z,6.67
2018-08-30T11:35:43.580Z,7.00
2018-08-30T11:38:12.224Z,6.07
2018-08-30T11:40:40.811Z,6.63
2018-08-30T11:43:09.409Z,5.70
2018-08-30T11:45:38.198Z,5.73
2018-08-30T11:48:06.828Z,5.80
2018-08-30T11:50:35.379Z,6.97
2018-08-30T11:53:04.045Z,5.37
2018-08-30T11:55:32.611Z,6.90
2018-08-30T11:58:01.164Z,5.90
2018-08-30T12:00:29.975Z,6.33
2018-08-30T12:02:59.407Z,7.17
2018-08-30T12:05:27.972Z,6.00
2018-08-30T12:07:57.793Z,7.03
2018-08-30T12:10:26.729Z,6.50
2018-08-30T12:12:55.259Z,6.23
2018-08-30T12:15:23.906Z,6.77
2018-08-30T12:17:52.496Z,6.87
2018-08-30T12:20:21.075Z,6.80
2018-08-30T12:22:49.781Z,6.47
2018-08-30T12:25:18.333Z,7.00
2018-08-30T12:27:46.896Z,6.20
2018-08-30T12:30:15.735Z,6.20
2018-08-30T12:32:44.370Z,7.30
2018-08-30T12:35:12.979Z,6.13
2018-08-30T12:37:41.573Z,5.90
2018-08-30T12:40:10.240Z,6.77
2018-08-30T12:42:39.026Z,6.20
2018-08-30T12:45:08.011Z,7.03
2018-08-30T12:47:36.839Z,6.23
2018-08-30T12:50:06.036Z,5.97
2018-08-30T12:52:34.727Z,8.73
2018-08-30T12:55:03.344Z,6.70
2018-08-30T12:57:31.829Z,7.37
2018-08-30T13:00:00.485Z,7.50
2018-08-30T13:02:29.086Z,6.00
2018-08-30T13:04:57.734Z,6.50
2018-08-30T13:07:26.346Z,6.07
2018-08-30T13:09:55.472Z,6.10
2018-08-30T13:12:24.123Z,6.43
2018-08-30T13:14:52.753Z,6.80
2018-08-30T13:17:21.240Z,8.47
2018-08-30T13:19:50.054Z,7.37
2018-08-30T13:22:18.617Z,7.23
2018-08-30T13:24:47.163Z,6.90
2018-08-30T13:27:15.850Z,6.80
2018-08-30T13:29:44.595Z,7.57
2018-08-30T13:32:13.348Z,7.60
2018-08-30T13:34:41.903Z,7.50
2018-08-30T13:37:10.531Z,7.60
2018-08-30T13:39:39.276Z,8.07
2018-08-30T13:42:07.895Z,7.80
2018-08-30T13:44:36.549Z,8.27
2018-08-30T13:47:05.351Z,8.37
2018-08-30T13:49:33.587Z,8.80
2018-08-30T13:52:02.518Z,8.43
2018-08-30T13:54:31.092Z,8.60
2018-08-30T13:56:59.680Z,8.23
2018-08-30T13:59:28.737Z,8.50
2018-08-30T14:01:57.082Z,7.10
2018-08-30T14:04:25.658Z,8.23
2018-08-30T14:06:54.299Z,8.40
2018-08-30T14:09:22.906Z,7.87
2018-08-30T14:11:51.605Z,7.97
2018-08-30T14:14:20.308Z,7.57
2018-08-30T14:16:48.702Z,9.03
2018-08-30T14:19:17.819Z,7.90
2018-08-30T14:21:46.634Z,7.93
2018-08-30T14:24:15.222Z,8.20
2018-08-30T14:26:43.776Z,8.50
2018-08-30T14:29:12.452Z,7.63
2018-08-30T14:31:41.003Z,8.97
2018-08-30T14:34:09.672Z,8.33
2018-08-30T14:36:38.372Z,8.00
2018-08-30T14:39:08.623Z,8.40
2018-08-30T14:41:37.218Z,9.17
2018-08-30T14:44:05.912Z,8.80
2018-08-30T14:46:34.886Z,8.00
2018-08-30T14:49:03.944Z,9.97
2018-08-30T14:51:32.584Z,9.07
2018-08-30T14:54:01.351Z,9.47
2018-08-30T14:56:29.826Z,8.97
2018-08-30T14:58:58.412Z,8.00
2018-08-30T15:01:26.974Z,8.40
2018-08-30T15:03:55.531Z,8.70
2018-08-30T15:06:24.126Z,9.40
2018-08-30T15:08:52.679Z,8.20
2018-08-30T15:11:21.279Z,9.10
2018-08-30T15:13:49.823Z,9.50
2018-08-30T15:16:18.433Z,8.40
2018-08-30T15:18:47.134Z,8.77
2018-08-30T15:21:15.833Z,8.30
2018-08-30T15:23:44.511Z,6.97
2018-08-30T15:26:13.079Z,6.70
2018-08-30T15:28:41.704Z,6.70
2018-08-30T15:31:10.294Z,5.60
2018-08-30T15:33:39.110Z,6.63
2018-08-30T15:36:07.772Z,6.80
2018-08-30T15:38:36.338Z,6.80
2018-08-30T15:41:04.984Z,7.40
2018-08-30T15:43:33.594Z,7.00
2018-08-30T15:46:02.174Z,6.17
2018-08-30T15:48:30.744Z,6.43
2018-08-30T15:50:59.443Z,6.63
2018-08-30T15:53:28.008Z,7.13
2018-08-30T15:55:56.576Z,6.90
2018-08-30T15:58:25.177Z,7.50
2018-08-30T16:00:53.849Z,7.87
2018-08-30T16:03:22.412Z,6.97
2018-08-30T16:05:51.096Z,7.20
2018-08-30T16:08:19.672Z,7.83
2018-08-30T16:10:48.255Z,7.73
2018-08-30T16:13:17.293Z,9.90
2018-08-30T16:15:45.791Z,7.50
2018-08-30T16:18:14.376Z,8.13
2018-08-30T16:20:43.108Z,7.63
2018-08-30T16:23:33.432Z,9.37
2018-08-30T16:26:02.135Z,7.80
2018-08-30T16:28:31.834Z,6.90
2018-08-30T16:31:00.607Z,7.90
2018-08-30T16:33:29.440Z,6.83
2018-08-30T16:35:58.067Z,8.27
2018-08-30T16:38:26.806Z,8.33
2018-08-30T16:40:55.479Z,8.30
2018-08-30T16:43:24.036Z,7.70
2018-08-30T16:45:54.247Z,8.97
2018-08-30T16:48:22.874Z,7.97
2018-08-30T16:50:51.752Z,9.03
2018-08-30T16:53:20.475Z,8.23
2018-08-30T16:55:49.235Z,8.93
2018-08-30T16:58:17.790Z,8.20
2018-08-30T17:00:46.573Z,9.70
2018-08-30T17:03:15.556Z,9.00
2018-08-30T17:05:44.251Z,11.00
2018-08-30T17:08:12.844Z,9.80
2018-08-30T17:10:41.543Z,9.77
2018-08-30T17:13:10.127Z,9.33
2018-08-30T17:15:38.774Z,9.80
2018-08-30T17:18:07.880Z,11.60
2018-08-30T17:20:40.583Z,10.77
2018-08-30T17:23:09.480Z,9.67
2018-08-30T17:25:38.035Z,9.87
2018-08-30T17:28:06.639Z,9.87
2018-08-30T17:30:35.683Z,12.10
2018-08-30T17:33:04.263Z,11.30
2018-08-30T17:35:32.820Z,10.13
2018-08-30T17:38:01.477Z,10.67
2018-08-30T17:40:30.084Z,11.23
2018-08-30T17:42:58.658Z,10.90
2018-08-30T17:45:27.433Z,11.10
2018-08-30T17:47:55.976Z,10.87
2018-08-30T17:50:24.548Z,11.40
2018-08-30T17:52:53.231Z,11.80
2018-08-30T17:55:21.915Z,10.70
2018-08-30T17:57:50.480Z,11.07
2018-08-30T18:00:19.112Z,11.40
2018-08-30T18:02:48.204Z,12.00
2018-08-30T18:05:17.062Z,11.40
2018-08-30T18:07:45.807Z,11.87
2018-08-30T18:10:14.395Z,10.60
2018-08-30T18:12:42.942Z,12.27
2018-08-30T18:15:13.820Z,10.87
2018-08-30T18:17:42.525Z,11.07
2018-08-30T18:20:11.308Z,10.80
2018-08-30T18:22:39.976Z,10.43
2018-08-30T18:25:13.417Z,11.30
2018-08-30T18:27:44.217Z,10.40
2018-08-30T18:30:15.372Z,11.40
2018-08-30T18:32:47.105Z,11.37
2018-08-30T18:35:17.335Z,10.63
2018-08-30T18:37:49.823Z,10.37
2018-08-30T18:40:18.511Z,11.43
2018-08-30T18:42:47.096Z,11.40
2018-08-30T18:45:15.688Z,11.13
2018-08-30T18:47:44.236Z,13.13
2018-08-30T18:50:12.779Z,11.83
2018-08-30T18:52:41.811Z,11.30
2018-08-30T18:55:10.375Z,10.33
2018-08-30T18:57:38.931Z,11.10
2018-08-30T19:00:08.635Z,11.27
2018-08-30T19:02:37.252Z,10.50
2018-08-30T19:05:05.827Z,10.20
2018-08-30T19:07:34.427Z,10.70
2018-08-30T19:10:03.027Z,11.73
2018-08-30T19:12:31.712Z,10.93
2018-08-30T19:15:02.643Z,10.50
2018-08-30T19:17:36.500Z,11.50
2018-08-30T19:20:05.100Z,12.47
2018-08-30T19:22:33.670Z,11.10
2018-08-30T19:25:07.664Z,10.77
2018-08-30T19:27:36.265Z,10.40
2018-08-30T19:30:09.980Z,10.40
2018-08-30T19:32:38.536Z,11.10
2018-08-30T19:35:12.884Z,10.60
2018-08-30T19:37:42.019Z,10.33
2018-08-30T19:40:14.816Z,10.23
2018-08-30T19:42:43.652Z,11.00
2018-08-30T19:45:12.237Z,11.50
2018-08-30T19:47:40.904Z,12.27
2018-08-30T19:50:09.776Z,12.33
2018-08-30T19:52:39.294Z,12.50
2018-08-30T19:55:08.421Z,12.43
2018-08-30T19:57:37.144Z,11.47
2018-08-30T20:00:05.991Z,12.93
2018-08-30T20:02:34.785Z,13.30
2018-08-30T20:05:03.431Z,12.80
2018-08-30T20:07:32.124Z,11.80
2018-08-30T20:10:00.844Z,11.87
2018-08-30T20:12:29.594Z,11.80
2018-08-30T20:14:58.356Z,11.77
2018-08-30T20:17:26.955Z,13.75
2018-08-30T20:19:55.885Z,11.20
2018-08-30T20:22:24.515Z,13.70
2018-08-30T20:24:53.112Z,11.43
2018-08-30T20:27:21.707Z,11.60
2018-08-30T20:29:50.256Z,13.87
2018-08-30T20:32:18.924Z,14.10
2018-08-30T20:34:47.477Z,13.00
2018-08-30T20:37:16.034Z,10.83
2018-08-30T20:39:44.863Z,12.83
2018-08-30T20:42:13.909Z,14.10
2018-08-30T20:44:42.455Z,14.37
2018-08-30T20:47:11.044Z,11.67
2018-08-30T20:49:39.608Z,11.93
2018-08-30T20:52:08.683Z,13.67
2018-08-30T20:54:37.506Z,13.70
2018-08-30T20:57:06.224Z,13.40
2018-08-30T20:59:34.867Z,13.33
2018-08-30T21:02:03.716Z,14.20
2018-08-30T21:04:32.225Z,13.70
2018-08-30T21:07:00.801Z,13.87
2018-08-30T21:09:29.668Z,13.70
2018-08-30T21:11:58.228Z,14.40
2018-08-30T21:14:26.823Z,13.93
2018-08-30T21:16:55.744Z,15.90
2018-08-30T21:19:24.312Z,12.60
2018-08-30T21:21:53.068Z,14.40
2018-08-30T21:24:39.619Z,13.97
2018-08-30T21:27:08.699Z,14.63
2018-08-30T21:29:37.298Z,14.37
2018-08-30T21:32:06.072Z,15.13
2018-08-30T21:34:35.881Z,16.53
2018-08-30T21:37:04.471Z,15.00
2018-08-30T21:39:33.166Z,13.60
2018-08-30T21:42:01.732Z,16.77
2018-08-30T21:44:30.323Z,15.47
2018-08-30T21:46:58.879Z,15.53
2018-08-30T21:49:27.504Z,15.03
2018-08-30T21:51:56.159Z,15.07
2018-08-30T21:54:24.731Z,15.70
2018-08-30T21:56:53.484Z,15.17
2018-08-30T21:59:22.164Z,14.20
2018-08-30T22:01:50.719Z,14.40
2018-08-30T22:04:19.527Z,14.53
2018-08-30T22:06:48.206Z,15.37
2018-08-30T22:09:16.760Z,14.50
2018-08-30T22:11:45.495Z,15.40
2018-08-30T22:14:14.171Z,15.60
2018-08-30T22:16:42.719Z,14.90
2018-08-30T22:19:11.262Z,15.70
2018-08-30T22:21:39.959Z,15.27
2018-08-30T22:24:08.519Z,14.97
2018-08-30T22:26:37.307Z,16.10
2018-08-30T22:29:06.103Z,14.63
2018-08-30T22:31:34.672Z,14.80
2018-08-30T22:34:03.254Z,15.57
2018-08-30T22:36:31.928Z,13.27
2018-08-30T22:39:00.507Z,14.47
2018-08-30T22:41:29.087Z,13.40
2018-08-30T22:43:57.672Z,14.83
2018-08-30T22:46:26.242Z,14.27
2018-08-30T22:48:54.796Z,14.30
2018-08-30T22:51:23.495Z,14.40
2018-08-30T22:53:52.582Z,14.53
2018-08-30T22:56:21.762Z,14.83
2018-08-30T22:58:51.259Z,14.40
2018-08-30T23:01:20.397Z,13.30
2018-08-30T23:03:48.992Z,13.97
2018-08-30T23:06:17.693Z,14.50
2018-08-30T23:08:46.244Z,14.03
2018-08-30T23:11:14.800Z,14.60
2018-08-30T23:13:43.591Z,14.53
2018-08-30T23:16:12.231Z,16.63
2018-08-30T23:18:40.807Z,13.97
2018-08-30T23:21:09.427Z,14.77
2018-08-30T23:23:37.971Z,14.20
2018-08-30T23:26:06.592Z,13.60
2018-08-30T23:28:35.263Z,14.23
2018-08-30T23:31:03.824Z,12.80
2018-08-30T23:33:32.540Z,14.40
2018-08-30T23:36:01.136Z,13.70
2018-08-30T23:38:29.691Z,14.47
2018-08-30T23:40:58.251Z,13.93
2018-08-30T23:43:27.199Z,13.53
2018-08-30T23:45:55.776Z,13.83
2018-08-30T23:48:24.327Z,13.57
2018-08-30T23:50:53.339Z,14.10
2018-08-30T23:53:21.891Z,14.10
2018-08-30T23:55:50.467Z,15.40
2018-08-30T23:59:28.315Z,14.93
